Latest Weather Observations for Warwick

IDQ60801

Issued at 9:32 pm EST Friday 29 July 2016 (issued every 30 minutes, with the page automatically refreshed every 10 minutes)

About weather observations | Map of weather stations | Latest weather observations for QLD | Other Formats
Station Details ID: 041525 Name: WARWICK Lat: -28.21 Lon: 152.10 Height: 475.4 m
Data from the previous 72 hours. | See also: Recent months at Warwick
Date/Time
EST
Temp
°C
App
Temp
°C
Dew
Point
°C
Rel
Hum
%
Delta-T
°C
Wind Press
QNH
hPa
Press
MSL
hPa
Rain since
9am
mm
Dir  Spd
km/h
Gust
km/h
Spd
kts
Gust
kts
29/09:30pm 10.5 7.3 3.3 61 3.2 WNW 9 13 5 7 1021.8 1021.9 0.0
29/09:00pm 11.4 8.1 2.3 53 4.0 W 9 15 5 8 1021.7 1021.8 0.0
29/08:30pm 11.7 8.3 1.9 51 4.3 W 9 15 5 8 1021.4 1021.6 0.0
29/08:00pm 12.6 8.7 1.4 46 4.9 WNW 11 15 6 8 1021.1 1021.3 0.0
29/07:30pm 13.0 9.5 1.0 44 5.2 WNW 9 11 5 6 1020.8 1020.9 0.0
29/07:00pm 12.9 9.3 0.6 43 5.3 WNW 9 11 5 6 1020.6 1020.7 0.0
29/06:30pm 14.5 10.8 0.2 37 6.2 WNW 9 13 5 7 1020.4 1020.5 0.0
29/06:00pm 12.5 9.0 1.5 47 4.8 NNW 9 11 5 6 1020.1 1020.2 0.0
29/05:30pm 14.3 10.9 1.8 42 5.6 NW 9 13 5 7 1019.8 1019.9 0.0
29/05:00pm 16.7 13.5 0.8 34 7.1 NW 7 11 4 6 1019.7 1019.8 0.0
29/04:30pm 18.8 14.2 -0.7 27 8.6 NW 13 17 7 9 1019.7 1019.8 0.0
29/04:00pm 19.6 15.4 -0.6 25 9.0 W 11 17 6 9 1019.7 1019.8 0.0
29/03:30pm 20.2 16.5 0.2 26 9.1 W 9 15 5 8 1019.8 1019.9 0.0
29/03:00pm 19.7 15.6 0.0 26 8.9 W 11 24 6 13 1019.8 1019.9 0.0
29/02:30pm 19.6 15.5 0.1 27 8.8 WNW 11 17 6 9 1019.9 1020.0 0.0
29/02:00pm 19.7 15.7 0.7 28 8.7 WNW 11 17 6 9 1020.2 1020.3 0.0
29/01:30pm 19.1 15.5 0.3 28 8.5 WNW 9 15 5 8 1020.5 1020.6 0.0
29/01:00pm 18.7 15.1 0.9 30 8.1 NW 9 17 5 9 1020.9 1021.1 0.0
29/12:30pm 18.7 14.2 -0.5 27 8.5 W 13 20 7 11 1021.5 1021.7 0.0
29/12:00pm 17.6 13.6 0.7 32 7.6 WNW 11 22 6 12 1022.2 1022.3 0.0
29/11:30am 17.2 13.8 1.6 35 7.1 W 9 19 5 10 1022.8 1023.0 0.0
29/11:00am 16.1 13.2 2.4 39 6.3 WSW 7 15 4 8 1023.3 1023.5 0.0
29/10:30am 14.6 12.5 3.9 48 5.0 S 4 9 2 5 1023.7 1023.9 0.0
29/10:00am 12.2 10.9 4.2 58 3.7 CALM 0 6 0 3 1024.2 1024.3 0.0
29/09:30am 9.6 8.3 4.3 69 2.4 CALM 0 0 0 0 1024.4 1024.5 0.0
29/09:00am 7.1 5.5 2.6 73 1.9 CALM 0 0 0 0 1024.6 1024.8 0.0
29/08:30am 5.7 4.1 2.6 80 1.3 CALM 0 0 0 0 1024.6 1024.8 0.0
29/08:00am 4.0 2.2 1.0 81 1.2 CALM 0 0 0 0 1024.5 1024.7 0.0
29/07:30am 0.4 - - - - ENE 4 9 2 5 1024.3 1024.4 0.0
29/07:00am 0.6 -1.4 -0.2 94 0.3 CALM 0 0 0 0 1024.2 1024.3 0.0
29/06:30am -0.6 - - - - CALM 0 0 0 0 1024.0 1024.1 0.0
29/06:00am -1.2 - - - - CALM 0 0 0 0 1023.6 1023.8 0.0
29/05:30am -0.1 - - - - CALM 0 0 0 0 1023.2 1023.4 0.0
29/05:00am -1.7 - - - - WSW 2 7 1 4 1022.9 1023.1 0.0
29/04:30am 0.5 - - - - CALM 0 0 0 0 1022.6 1022.7 0.0
29/04:00am -0.7 - - - - CALM 0 0 0 0 1022.9 1023.1 0.0
29/03:30am 1.1 -0.8 0.3 94 0.3 CALM 0 0 0 0 1022.8 1023.0 0.0
29/03:00am 1.4 -0.4 1.4 100 0.0 CALM 0 0 0 0 1023.1 1023.3 0.0
29/02:30am 0.1 - - - - CALM 0 0 0 0 1023.0 1023.2 0.0
29/02:00am 0.8 -1.1 0.8 100 0.0 CALM 0 0 0 0 1023.0 1023.2 0.0
29/01:30am 3.0 1.4 2.3 95 0.3 CALM 0 0 0 0 1023.3 1023.5 0.0
29/01:00am 2.7 1.1 2.2 96 0.2 CALM 0 0 0 0 1023.3 1023.5 0.0
29/12:30am 2.6 0.9 1.8 94 0.3 CALM 0 0 0 0 1023.3 1023.5 0.0
29/12:00am 1.9 0.1 1.4 96 0.2 CALM 0 6 0 3 1023.2 1023.4 0.0
 
Date/Time
EST
Temp
°C
App
Temp
°C
Dew
Point
°C
Rel
Hum
%
Delta-T
°C
Wind Press
QNH
hPa
Press
MSL
hPa
Rain since
9am
mm
Dir  Spd
km/h
Gust
km/h
Spd
kts
Gust
kts
28/11:30pm 4.6 3.0 2.7 87 0.8 CALM 0 0 0 0 1023.4 1023.6 0.0
28/11:00pm 4.9 3.3 2.5 84 1.0 CALM 0 0 0 0 1023.6 1023.8 0.0
28/10:30pm 5.1 3.5 2.7 84 1.0 CALM 0 0 0 0 1023.6 1023.8 0.0
28/10:00pm 5.8 4.2 2.5 79 1.4 CALM 0 0 0 0 1023.7 1023.9 0.0
28/09:30pm 6.1 4.5 2.5 78 1.5 CALM 0 0 0 0 1023.8 1024.0 0.0
28/09:00pm 5.6 2.7 1.4 74 1.7 S 6 7 3 4 1023.8 1024.0 0.0
28/08:55pm 6.0 3.2 1.9 75 1.7 W 6 9 3 5 1023.8 1024.0 0.0
28/08:30pm 11.1 7.9 2.8 56 3.7 NNW 9 11 5 6 1023.7 1023.9 0.0
28/08:00pm 13.0 8.8 1.6 46 5.0 NNW 13 19 7 10 1023.6 1023.8 0.0
28/07:30pm 12.6 8.8 2.0 48 4.7 NNW 11 15 6 8 1023.4 1023.6 0.0
28/07:00pm 10.9 7.5 1.9 54 3.9 NE 9 13 5 7 1023.0 1023.2 0.0
28/06:30pm 12.8 10.1 3.7 54 4.2 NW 7 11 4 6 1022.8 1023.0 0.0
28/06:00pm 12.0 8.9 1.4 48 4.6 NW 7 9 4 5 1022.6 1022.7 0.0
28/05:30pm 12.1 9.6 3.5 55 3.9 NW 6 7 3 4 1022.3 1022.4 0.0
28/05:00pm 13.7 12.4 4.1 52 4.5 CALM 0 0 0 0 1022.0 1022.1 0.0
28/04:30pm 18.1 15.4 2.8 36 7.2 WNW 6 9 3 5 1021.9 1022.0 0.0
28/04:00pm 18.6 15.7 2.4 34 7.6 W 7 15 4 8 1021.9 1022.0 0.0
28/03:30pm 18.2 15.0 1.0 31 7.8 SW 7 13 4 7 1021.9 1022.0 0.0
28/03:00pm 18.7 15.7 2.2 33 7.7 W 7 13 4 7 1021.8 1021.9 0.0
28/02:30pm 17.8 13.9 1.4 33 7.5 SSW 11 19 6 10 1021.9 1022.0 0.0
28/02:00pm 17.8 14.8 2.0 34 7.3 WSW 7 17 4 9 1021.9 1022.0 0.0
28/01:30pm 18.2 15.4 3.0 36 7.2 NW 7 9 4 5 1022.1 1022.2 0.0
28/01:00pm 17.5 14.9 3.4 39 6.7 W 6 13 3 7 1022.4 1022.5 0.0
28/12:30pm 16.9 14.3 3.0 39 6.5 NNW 6 11 3 6 1022.8 1023.0 0.0
28/12:00pm 16.2 14.7 2.8 40 6.2 CALM 0 6 0 3 1023.3 1023.5 0.0
28/11:30am 15.5 13.4 2.0 40 6.1 NNW 2 7 1 4 1024.0 1024.1 0.0
28/11:00am 14.2 12.2 2.5 45 5.3 NNE 2 9 1 5 1024.6 1024.8 0.0
28/10:30am 12.3 10.0 3.0 53 4.2 SSE 4 9 2 5 1024.9 1025.1 0.0
28/10:00am 10.9 8.9 2.5 56 3.7 SW 2 7 1 4 1024.9 1025.1 0.0
28/09:30am 8.9 7.3 2.7 65 2.7 CALM 0 0 0 0 1025.1 1025.3 0.0
28/09:00am 6.1 4.0 2.0 75 1.7 SW 2 7 1 4 1024.8 1025.0 0.0
28/08:30am 3.8 0.9 1.3 84 1.0 SW 6 9 3 5 1024.7 1024.9 0.0
28/08:00am 2.0 -0.3 0.2 88 0.7 WSW 2 9 1 5 1024.4 1024.5 0.0
28/07:30am 0.0 - - - - WSW 4 9 2 5 1024.2 1024.3 0.0
28/07:00am -1.2 - - - - CALM 0 0 0 0 1023.5 1023.7 0.0
28/06:30am -0.5 - - - - CALM 0 0 0 0 1023.2 1023.4 0.0
28/06:00am -1.3 - - - - CALM 0 0 0 0 1022.9 1023.1 0.0
28/05:30am 1.2 -1.1 0.7 96 0.2 NE 2 7 1 4 1022.5 1022.6 0.0
28/05:00am 0.9 -2.9 -0.5 90 0.5 NE 9 13 5 7 1022.2 1022.3 0.0
28/04:30am -0.8 - - - - ENE 6 9 3 5 1022.3 1022.4 0.0
28/04:00am 0.7 -2.5 -0.4 92 0.4 WSW 6 9 3 5 1022.2 1022.3 0.0
28/03:30am 2.5 0.6 0.7 88 0.7 CALM 0 0 0 0 1022.1 1022.2 0.0
28/03:00am 1.7 -0.1 1.2 96 0.2 CALM 0 6 0 3 1022.2 1022.3 0.0
28/02:30am 2.6 0.8 1.1 90 0.6 CALM 0 0 0 0 1022.3 1022.4 0.0
28/02:00am 2.7 0.8 0.6 86 0.8 CALM 0 7 0 4 1022.3 1022.4 0.0
28/01:30am 4.3 2.6 1.8 84 1.0 CALM 0 6 0 3 1022.4 1022.5 0.0
28/01:00am 5.2 3.1 2.0 80 1.3 WSW 2 6 1 3 1022.4 1022.5 0.0
28/12:30am 5.8 2.8 1.1 72 1.9 ENE 6 13 3 7 1022.4 1022.5 0.0
28/12:00am 6.8 4.0 2.3 73 1.9 W 6 9 3 5 1022.2 1022.3 0.0
 
Date/Time
EST
Temp
°C
App
Temp
°C
Dew
Point
°C
Rel
Hum
%
Delta-T
°C
Wind Press
QNH
hPa
Press
MSL
hPa
Rain since
9am
mm
Dir  Spd
km/h
Gust
km/h
Spd
kts
Gust
kts
27/11:30pm 7.6 4.8 2.2 68 2.3 WSW 6 9 3 5 1022.2 1022.3 0.0
27/11:00pm 8.3 5.7 3.0 69 2.3 WNW 6 11 3 6 1022.1 1022.2 0.0
27/10:30pm 8.8 6.6 3.4 69 2.4 W 4 9 2 5 1022.0 1022.1 0.0
27/10:00pm 9.1 5.4 2.4 63 2.9 WSW 11 15 6 8 1021.9 1022.0 0.0
27/09:30pm 7.6 6.2 3.7 76 1.7 CALM 0 0 0 0 1021.9 1022.0 0.0
27/09:00pm 8.4 6.7 2.1 64 2.7 CALM 0 0 0 0 1021.7 1021.8 0.0
27/08:30pm 9.0 7.2 3.6 69 2.4 WSW 2 7 1 4 1021.4 1021.6 0.0
27/08:00pm 10.7 7.5 3.3 60 3.3 W 9 13 5 7 1021.2 1021.4 0.0
27/07:30pm 11.2 8.0 3.2 58 3.6 W 9 15 5 8 1021.0 1021.2 0.0
27/07:00pm 12.0 8.0 2.6 52 4.2 W 13 19 7 10 1020.5 1020.6 0.0
27/06:30pm 12.0 8.4 3.1 54 4.0 W 11 17 6 9 1019.9 1020.0 0.0
27/06:00pm 12.2 8.3 3.4 55 4.0 WSW 13 24 7 13 1019.5 1019.6 0.0
27/05:30pm 12.9 9.0 3.3 52 4.4 WSW 13 24 7 13 1019.0 1019.1 0.0
27/05:00pm 14.3 10.3 2.7 45 5.3 WSW 13 20 7 11 1018.7 1018.8 0.0
27/04:30pm 15.5 9.6 1.8 39 6.2 WSW 22 32 12 17 1018.1 1018.2 0.0
27/04:00pm 16.4 11.1 2.0 38 6.6 WSW 19 28 10 15 1017.8 1017.9 0.0
27/03:30pm 16.3 10.8 2.1 38 6.5 WSW 20 32 11 17 1017.5 1017.6 0.0
27/03:00pm 16.5 10.9 1.5 36 6.8 WSW 20 33 11 18 1017.5 1017.6 0.0
27/02:30pm 16.6 11.1 1.7 36 6.8 WSW 20 32 11 17 1017.3 1017.3 0.0
27/02:00pm 15.9 10.4 1.8 38 6.4 WSW 20 32 11 17 1017.6 1017.7 0.0
27/01:30pm 15.0 10.2 2.5 43 5.7 W 17 30 9 16 1017.9 1018.0 0.0
27/01:00pm 14.4 9.3 2.8 45 5.3 W 19 28 10 15 1018.0 1018.1 0.0
27/12:30pm 13.4 8.6 2.8 48 4.8 W 17 28 9 15 1018.5 1018.6 0.0
27/12:00pm 12.7 8.6 2.4 49 4.6 W 13 22 7 12 1019.2 1019.4 0.0
27/11:30am 12.6 8.2 2.6 50 4.5 W 15 22 8 12 1019.6 1019.7 0.0
27/11:00am 12.0 7.7 3.1 54 4.0 W 15 22 8 12 1020.0 1020.1 0.0
27/10:30am 11.3 7.0 3.3 58 3.6 WNW 15 22 8 12 1020.3 1020.4 0.0
27/10:00am 10.9 7.4 3.3 59 3.4 NW 11 19 6 10 1020.4 1020.5 0.0
27/09:30am 10.6 6.7 3.2 60 3.3 NW 13 19 7 10 1020.6 1020.7 0.0
27/09:00am 10.4 6.8 3.0 60 3.3 NW 11 19 6 10 1020.5 1020.6 0.0
27/08:30am 10.1 6.4 2.6 59 3.3 NW 11 17 6 9 1020.1 1020.2 0.0
27/08:00am 10.1 6.0 2.3 58 3.4 NW 13 19 7 10 1020.2 1020.3 0.0
27/07:30am 10.1 6.0 2.3 58 3.4 NW 13 20 7 11 1019.9 1020.0 0.0
27/07:00am 10.2 6.0 1.9 56 3.6 NW 13 17 7 9 1019.5 1019.6 0.0
27/06:30am 10.3 5.8 2.0 56 3.6 NW 15 20 8 11 1019.6 1019.7 0.0
27/06:00am 10.3 6.2 2.0 56 3.6 NNW 13 20 7 11 1019.7 1019.8 0.0
27/05:30am 10.4 7.0 2.1 56 3.6 NNW 9 13 5 7 1018.8 1018.9 0.0
27/05:00am 10.7 7.4 2.3 56 3.7 NW 9 17 5 9 1018.7 1018.8 0.0
27/04:30am 10.5 7.2 2.5 57 3.5 NNW 9 13 5 7 1018.4 1018.5 0.0
27/04:00am 10.4 7.1 2.7 59 3.4 NNW 9 13 5 7 1018.2 1018.3 0.0
27/03:30am 10.4 6.8 3.0 60 3.3 N 11 15 6 8 1018.5 1018.6 0.0
27/03:00am 10.6 8.0 3.0 59 3.4 NNW 6 9 3 5 1018.3 1018.4 0.0
27/02:30am 10.9 7.7 3.3 59 3.4 WNW 9 13 5 7 1018.6 1018.7 0.0
27/02:00am 10.6 7.8 3.2 60 3.3 NNW 7 9 4 5 1018.8 1018.9 0.0
27/01:30am 11.3 8.1 2.8 56 3.8 NW 9 17 5 9 1018.7 1018.8 0.0
27/01:00am 11.4 7.7 2.6 54 3.9 NW 11 17 6 9 1018.5 1018.6 0.0
27/12:30am 11.2 8.4 2.9 56 3.7 NW 7 13 4 7 1018.5 1018.6 0.0
27/12:00am 11.2 7.9 2.6 55 3.8 NNW 9 13 5 7 1018.3 1018.4 0.0
 
Date/Time
EST
Temp
°C
App
Temp
°C
Dew
Point
°C
Rel
Hum
%
Delta-T
°C
Wind Press
QNH
hPa
Press
MSL
hPa
Rain since
9am
mm
Dir  Spd
km/h
Gust
km/h
Spd
kts
Gust
kts
26/11:30pm 11.5 7.9 2.8 55 3.9 NW 11 17 6 9 1018.3 1018.4 0.0
26/11:00pm 11.4 8.7 2.9 56 3.8 NW 6 7 3 4 1018.0 1018.1 0.0
26/10:30pm 11.5 8.9 3.3 57 3.7 WNW 6 9 3 5 1018.5 1018.6 0.0
26/10:00pm 11.7 8.9 3.3 56 3.8 NW 7 11 4 6 1018.7 1018.8 0.0

Other Formats:

Comma delimited format used in spreadsheet applications
http://www.bom.gov.au/fwo/IDQ60801/IDQ60801.94555.axf

JavaScript Object Notation format (JSON) in row-major order
http://www.bom.gov.au/fwo/IDQ60801/IDQ60801.94555.json